createdAt,value
2017-09-20T00:01:45.919Z,35.05
2017-09-20T00:04:13.508Z,38.35
2017-09-20T00:06:40.609Z,32.78
2017-09-20T00:09:07.721Z,32.70
2017-09-20T00:14:05.980Z,33.75
2017-09-20T00:16:34.691Z,35.33
2017-09-20T00:19:01.996Z,33.60
2017-09-20T00:21:29.645Z,33.83
2017-09-20T00:23:56.870Z,36.45
2017-09-20T00:26:23.985Z,34.83
2017-09-20T00:28:51.632Z,34.75
2017-09-20T00:31:20.239Z,35.25
2017-09-20T00:33:47.799Z,34.47
2017-09-20T00:36:14.917Z,36.00
2017-09-20T00:38:41.973Z,32.88
2017-09-20T00:41:09.053Z,37.97
2017-09-20T00:43:39.510Z,39.35
2017-09-20T00:46:06.717Z,36.42
2017-09-20T00:48:34.291Z,37.50
2017-09-20T00:51:02.777Z,38.50
2017-09-20T00:53:29.971Z,38.45
2017-09-20T00:55:57.664Z,38.83
2017-09-20T00:58:24.893Z,39.42
2017-09-20T01:03:23.172Z,39.60
2017-09-20T01:05:50.376Z,39.25
2017-09-20T01:08:17.643Z,36.40
2017-09-20T01:10:49.044Z,41.20
2017-09-20T01:13:19.781Z,40.03
2017-09-20T01:15:46.942Z,38.90
2017-09-20T01:18:14.092Z,38.78
2017-09-20T01:20:46.980Z,41.72
2017-09-20T01:23:20.010Z,41.72
2017-09-20T01:25:46.924Z,38.58
2017-09-20T01:28:14.587Z,41.65
2017-09-20T01:30:41.835Z,37.50
2017-09-20T01:33:11.009Z,39.80
2017-09-20T01:35:38.223Z,39.15
2017-09-20T01:38:05.844Z,40.12
2017-09-20T01:40:32.903Z,40.88
2017-09-20T01:45:34.499Z,42.42
2017-09-20T01:48:02.749Z,38.95
2017-09-20T01:50:30.487Z,40.15
2017-09-20T01:52:57.680Z,40.92
2017-09-20T01:55:24.816Z,39.38
2017-09-20T01:57:52.435Z,39.38
2017-09-20T02:00:19.578Z,38.38
2017-09-20T02:02:46.879Z,38.00
2017-09-20T02:05:16.117Z,39.15
2017-09-20T02:07:43.096Z,41.08
2017-09-20T02:10:11.609Z,38.10
2017-09-20T02:15:11.199Z,39.88
2017-09-20T02:17:38.740Z,42.03
2017-09-20T02:20:05.851Z,40.97
2017-09-20T02:22:34.335Z,40.45
2017-09-20T02:27:32.431Z,40.42
2017-09-20T02:30:00.940Z,38.42
2017-09-20T02:34:59.577Z,37.22
2017-09-20T02:37:27.283Z,39.72
2017-09-20T02:39:57.829Z,38.15
2017-09-20T02:42:25.527Z,45.30
2017-09-20T02:47:25.032Z,34.72
2017-09-20T02:49:53.506Z,37.45
2017-09-20T02:52:24.066Z,38.88
2017-09-20T02:57:22.225Z,40.75
2017-09-20T02:59:49.963Z,37.88
2017-09-20T03:02:17.248Z,38.75
2017-09-20T03:04:44.500Z,41.53
2017-09-20T03:07:11.563Z,41.10
2017-09-20T03:09:39.716Z,39.63
2017-09-20T03:12:07.430Z,39.05
2017-09-20T03:14:34.573Z,38.65
2017-09-20T03:17:01.705Z,38.83
2017-09-20T03:19:29.735Z,39.03
2017-09-20T03:21:57.409Z,40.10
2017-09-20T03:24:25.080Z,39.50
2017-09-20T03:26:53.263Z,35.97
2017-09-20T03:31:52.137Z,41.83
2017-09-20T03:34:19.374Z,42.17
2017-09-20T03:36:46.456Z,43.38
2017-09-20T03:39:13.519Z,37.22
2017-09-20T03:41:42.084Z,41.63
2017-09-20T03:44:09.335Z,35.63
2017-09-20T03:46:36.629Z,38.95
2017-09-20T03:49:03.736Z,38.50
2017-09-20T03:54:02.309Z,39.42
2017-09-20T03:56:29.856Z,37.67
2017-09-20T03:58:56.994Z,38.03
2017-09-20T04:01:24.110Z,34.53
2017-09-20T04:03:52.783Z,38.70
2017-09-20T04:06:21.256Z,38.67
2017-09-20T04:08:48.449Z,33.67
2017-09-20T04:11:17.151Z,36.17
2017-09-20T04:13:44.701Z,37.47
2017-09-20T04:21:13.643Z,36.80
2017-09-20T04:23:40.807Z,34.95
2017-09-20T04:26:09.375Z,36.85
2017-09-20T04:28:36.477Z,34.40
2017-09-20T04:31:04.108Z,31.27
2017-09-20T04:33:32.396Z,36.40
2017-09-20T04:35:59.943Z,33.65
2017-09-20T04:38:27.075Z,33.28
2017-09-20T04:40:54.214Z,34.67
2017-09-20T04:43:22.094Z,33.25
2017-09-20T04:45:49.917Z,32.45
2017-09-20T04:48:17.989Z,31.87
2017-09-20T04:50:45.341Z,31.85
2017-09-20T04:53:12.975Z,31.00
2017-09-20T04:55:40.051Z,29.77
2017-09-20T04:58:07.745Z,30.95
2017-09-20T05:00:34.935Z,33.08
2017-09-20T05:03:02.604Z,32.38
2017-09-20T05:05:29.944Z,32.67
2017-09-20T05:07:57.058Z,33.20
2017-09-20T05:10:24.640Z,30.27
2017-09-20T05:12:51.783Z,32.05
2017-09-20T05:15:18.909Z,32.08
2017-09-20T05:17:45.944Z,33.20
2017-09-20T05:20:13.095Z,33.20
2017-09-20T05:22:40.260Z,30.65
2017-09-20T05:25:07.325Z,31.08
2017-09-20T05:27:34.360Z,31.90
2017-09-20T05:30:01.488Z,32.80
2017-09-20T05:32:30.345Z,31.90
2017-09-20T05:34:57.276Z,31.25
2017-09-20T05:37:24.376Z,29.90
2017-09-20T05:39:51.717Z,32.42
2017-09-20T05:42:18.903Z,29.65
2017-09-20T05:44:46.460Z,33.92
2017-09-20T05:47:14.147Z,30.85
2017-09-20T05:49:41.281Z,32.08
2017-09-20T05:52:10.089Z,29.90
2017-09-20T05:54:37.097Z,31.75
2017-09-20T05:57:04.671Z,30.55
2017-09-20T05:59:31.453Z,27.20
2017-09-20T06:01:58.629Z,32.22
2017-09-20T06:04:25.648Z,29.63
2017-09-20T06:06:52.675Z,30.02
2017-09-20T06:09:19.452Z,30.02
2017-09-20T06:11:46.929Z,30.73
2017-09-20T06:14:14.421Z,31.48
2017-09-20T06:16:41.989Z,34.80
2017-09-20T06:19:09.002Z,30.37
2017-09-20T06:21:35.763Z,31.87
2017-09-20T06:24:02.753Z,32.63
2017-09-20T06:26:29.886Z,31.05
2017-09-20T06:28:56.927Z,30.60
2017-09-20T06:31:24.107Z,31.08
2017-09-20T06:33:50.871Z,29.60
2017-09-20T06:36:17.943Z,28.25
2017-09-20T06:38:44.706Z,30.62
2017-09-20T06:41:11.792Z,30.30
2017-09-20T06:43:38.565Z,33.33
2017-09-20T06:46:05.343Z,32.90
2017-09-20T06:48:32.421Z,29.25
2017-09-20T06:50:59.204Z,31.75
2017-09-20T06:53:26.288Z,29.27
2017-09-20T06:55:53.072Z,28.87
2017-09-20T06:58:20.053Z,30.98
2017-09-20T07:00:47.064Z,30.85
2017-09-20T07:03:13.841Z,29.30
2017-09-20T07:05:40.617Z,30.90
2017-09-20T07:08:07.605Z,31.20
2017-09-20T07:10:34.759Z,30.30
2017-09-20T07:13:01.932Z,30.30
2017-09-20T07:15:28.940Z,31.37
2017-09-20T07:17:56.057Z,31.87
2017-09-20T07:20:23.110Z,29.77
2017-09-20T07:22:50.103Z,29.70
2017-09-20T07:25:17.273Z,30.55
2017-09-20T07:27:44.027Z,29.60
2017-09-20T07:30:10.809Z,29.67
2017-09-20T07:32:37.886Z,27.70
2017-09-20T07:35:04.892Z,26.73
2017-09-20T07:37:31.661Z,27.25
2017-09-20T07:39:58.653Z,26.40
2017-09-20T07:42:25.439Z,20.08
2017-09-20T07:44:52.441Z,23.48
2017-09-20T07:47:19.345Z,26.42
2017-09-20T07:49:46.336Z,25.02
2017-09-20T07:52:13.107Z,25.52
2017-09-20T07:54:40.198Z,21.90
2017-09-20T07:57:08.119Z,24.73
2017-09-20T07:59:35.132Z,22.65
2017-09-20T08:02:01.913Z,25.17
2017-09-20T08:04:29.031Z,23.55
2017-09-20T08:06:55.829Z,24.63
2017-09-20T08:09:22.602Z,20.90
2017-09-20T08:11:49.661Z,22.77
2017-09-20T08:14:16.426Z,22.92
2017-09-20T08:16:43.208Z,22.55
2017-09-20T08:19:09.975Z,22.62
2017-09-20T08:21:36.748Z,23.10
2017-09-20T08:24:03.896Z,21.27
2017-09-20T08:26:30.925Z,21.77
2017-09-20T08:28:57.901Z,22.08
2017-09-20T08:31:24.684Z,21.50
2017-09-20T08:33:51.784Z,21.00
2017-09-20T08:36:19.272Z,20.42
2017-09-20T08:38:46.420Z,20.30
2017-09-20T08:41:13.197Z,18.60
2017-09-20T08:43:40.245Z,19.45
2017-09-20T08:46:07.024Z,20.62
2017-09-20T08:48:33.768Z,19.48
2017-09-20T08:51:00.544Z,19.00
2017-09-20T08:53:27.284Z,21.67
2017-09-20T08:55:54.308Z,21.17
2017-09-20T08:58:21.072Z,19.62
2017-09-20T09:00:48.053Z,19.87
2017-09-20T09:03:15.230Z,20.92
2017-09-20T09:05:42.320Z,20.15
2017-09-20T09:08:09.435Z,18.75
2017-09-20T09:10:36.585Z,20.58
2017-09-20T09:13:04.772Z,19.33
2017-09-20T09:15:31.522Z,20.98
2017-09-20T09:17:58.306Z,18.60
2017-09-20T09:20:25.347Z,21.40
2017-09-20T09:22:52.490Z,19.62
2017-09-20T09:25:19.477Z,21.40
2017-09-20T09:27:46.612Z,21.87
2017-09-20T09:30:13.703Z,19.92
2017-09-20T09:32:40.501Z,19.48
2017-09-20T09:35:07.632Z,21.90
2017-09-20T09:37:34.720Z,21.75
2017-09-20T09:40:01.847Z,20.55
2017-09-20T09:42:29.477Z,19.73
2017-09-20T09:45:00.165Z,22.40
2017-09-20T09:47:28.478Z,22.08
2017-09-20T09:49:56.123Z,22.13
2017-09-20T09:52:24.804Z,22.50
2017-09-20T09:54:53.250Z,22.17
2017-09-20T10:05:05.125Z,19.90
2017-09-20T10:07:31.935Z,22.67
2017-09-20T10:12:34.300Z,20.77
2017-09-20T10:15:02.136Z,20.60
2017-09-20T10:17:31.750Z,20.20
2017-09-20T10:33:06.071Z,16.42
2017-09-20T10:35:57.911Z,17.08
2017-09-20T10:43:50.224Z,15.32
2017-09-20T10:48:58.479Z,14.55
2017-09-20T10:54:00.905Z,15.55
2017-09-20T10:56:32.334Z,15.07
2017-09-20T10:58:59.457Z,19.62
2017-09-20T11:01:28.046Z,16.05
2017-09-20T11:03:58.916Z,15.15
2017-09-20T11:06:26.747Z,14.85
2017-09-20T11:08:54.391Z,15.60
2017-09-20T11:11:22.325Z,16.92
2017-09-20T11:13:49.152Z,18.10
2017-09-20T11:16:17.634Z,17.27
2017-09-20T11:18:44.852Z,16.90
2017-09-20T11:23:44.964Z,21.50
2017-09-20T11:26:12.068Z,18.80
2017-09-20T11:28:39.147Z,19.87
2017-09-20T11:31:06.708Z,21.40
2017-09-20T11:33:33.968Z,22.10
2017-09-20T11:36:02.682Z,20.30
2017-09-20T11:38:30.272Z,21.33
2017-09-20T11:40:58.890Z,20.80
2017-09-20T11:45:57.552Z,19.48
2017-09-20T11:48:24.621Z,20.65
2017-09-20T11:54:08.670Z,21.85
2017-09-20T11:56:36.584Z,25.27
2017-09-20T11:59:03.684Z,21.75
2017-09-20T12:01:30.699Z,19.15
2017-09-20T12:03:58.154Z,19.60
2017-09-20T12:11:27.515Z,19.08
2017-09-20T12:13:55.226Z,18.95
2017-09-20T12:16:22.805Z,18.27
2017-09-20T12:18:49.744Z,18.52
2017-09-20T12:21:17.722Z,18.27
2017-09-20T12:23:44.794Z,16.90
2017-09-20T12:26:11.894Z,19.45
2017-09-20T12:28:39.176Z,20.35
2017-09-20T12:31:05.985Z,18.23
2017-09-20T12:33:33.200Z,20.33
2017-09-20T12:36:00.502Z,19.20
2017-09-20T12:38:27.503Z,18.12
2017-09-20T12:40:54.532Z,18.92
2017-09-20T12:43:21.708Z,17.50
2017-09-20T12:45:48.522Z,17.08
2017-09-20T12:48:15.320Z,18.42
2017-09-20T12:50:42.528Z,16.77
2017-09-20T12:53:09.301Z,20.65
2017-09-20T12:55:36.518Z,18.95
2017-09-20T12:58:03.531Z,18.62
2017-09-20T13:00:30.300Z,16.85
2017-09-20T13:02:57.867Z,16.95
2017-09-20T13:05:24.936Z,17.00
2017-09-20T13:07:51.707Z,15.90
2017-09-20T13:10:18.758Z,15.68
2017-09-20T13:12:45.534Z,14.20
2017-09-20T13:15:12.642Z,16.33
2017-09-20T13:17:39.396Z,17.15
2017-09-20T13:20:06.871Z,17.40
2017-09-20T13:22:33.625Z,18.45
2017-09-20T13:25:00.650Z,15.88
2017-09-20T13:27:27.409Z,15.35
2017-09-20T13:29:54.182Z,16.08
2017-09-20T13:32:21.766Z,17.55
2017-09-20T13:34:48.936Z,16.20
2017-09-20T13:37:15.692Z,16.05
2017-09-20T13:39:42.868Z,15.07
2017-09-20T13:42:09.866Z,15.30
2017-09-20T13:44:36.648Z,15.45
2017-09-20T13:47:03.637Z,12.68
2017-09-20T13:49:30.617Z,13.40
2017-09-20T13:51:57.404Z,11.98
2017-09-20T13:54:24.168Z,13.02
2017-09-20T13:56:51.237Z,11.77
2017-09-20T13:59:18.003Z,13.20
2017-09-20T14:01:44.788Z,11.93
2017-09-20T14:04:11.923Z,13.18
2017-09-20T14:06:38.936Z,13.30
2017-09-20T14:09:05.682Z,11.75
2017-09-20T14:11:33.447Z,14.43
2017-09-20T14:14:00.197Z,13.40
2017-09-20T14:16:27.363Z,13.93
2017-09-20T14:18:54.517Z,12.15
2017-09-20T14:21:21.527Z,11.85
2017-09-20T14:23:48.299Z,11.77
2017-09-20T14:26:15.386Z,10.20
2017-09-20T14:28:42.128Z,10.20
2017-09-20T14:31:08.909Z,10.00
2017-09-20T14:33:35.660Z,12.55
2017-09-20T14:36:02.842Z,11.80
2017-09-20T14:38:29.955Z,14.90
2017-09-20T14:40:56.769Z,14.52
2017-09-20T14:43:23.857Z,11.77
2017-09-20T14:45:50.642Z,9.95
2017-09-20T14:48:17.778Z,11.27
2017-09-20T14:50:44.553Z,10.32
2017-09-20T14:53:11.304Z,10.80
2017-09-20T14:55:38.453Z,10.13
2017-09-20T14:58:05.441Z,9.85
2017-09-20T15:00:32.565Z,10.70
2017-09-20T15:02:59.650Z,13.32
2017-09-20T15:05:26.411Z,16.05
2017-09-20T15:07:53.179Z,14.87
2017-09-20T15:10:19.944Z,16.67
2017-09-20T15:12:47.421Z,16.42
2017-09-20T15:15:14.895Z,15.02
2017-09-20T15:17:41.677Z,15.93
2017-09-20T15:20:08.827Z,15.13
2017-09-20T15:22:35.849Z,16.77
2017-09-20T15:25:02.878Z,15.20
2017-09-20T15:27:29.900Z,15.82
2017-09-20T15:29:56.928Z,15.45
2017-09-20T15:32:24.066Z,14.63
2017-09-20T15:34:51.056Z,14.87
2017-09-20T15:37:18.104Z,14.73
2017-09-20T15:39:45.243Z,17.30
2017-09-20T15:42:12.015Z,16.17
2017-09-20T15:44:39.006Z,15.93
2017-09-20T15:47:06.123Z,15.60
2017-09-20T15:49:33.104Z,16.52
2017-09-20T15:52:00.236Z,16.65
2017-09-20T15:54:27.260Z,16.92
2017-09-20T15:56:54.273Z,17.50
2017-09-20T15:59:21.738Z,17.37
2017-09-20T16:01:49.240Z,15.88
2017-09-20T16:04:16.371Z,15.30
2017-09-20T16:06:43.153Z,17.00
2017-09-20T16:09:10.239Z,17.35
2017-09-20T16:11:37.027Z,16.15
2017-09-20T16:14:04.116Z,16.98
2017-09-20T16:16:31.116Z,15.73
2017-09-20T16:18:58.697Z,18.48
2017-09-20T16:21:25.821Z,16.92
2017-09-20T16:23:52.853Z,19.45
2017-09-20T16:26:19.968Z,18.27
2017-09-20T16:28:47.533Z,17.58
2017-09-20T16:31:14.608Z,17.25
2017-09-20T16:36:13.702Z,18.42
2017-09-20T16:38:41.204Z,18.50
2017-09-20T16:41:08.684Z,18.98
2017-09-20T16:43:35.472Z,18.80
2017-09-20T16:46:02.550Z,19.23
2017-09-20T16:48:29.728Z,18.40
2017-09-20T16:50:56.724Z,20.55
2017-09-20T16:53:23.805Z,18.48
2017-09-20T16:55:50.566Z,21.02
2017-09-20T16:58:17.616Z,19.87
2017-09-20T17:00:44.717Z,21.00
2017-09-20T17:03:11.514Z,21.23
2017-09-20T17:05:38.505Z,19.77
2017-09-20T17:08:05.611Z,20.77
2017-09-20T17:10:32.684Z,19.80
2017-09-20T17:12:59.860Z,20.48
2017-09-20T17:15:26.933Z,19.52
2017-09-20T17:17:54.068Z,20.73
2017-09-20T17:20:21.146Z,19.40
2017-09-20T17:22:48.158Z,20.00
2017-09-20T17:25:15.287Z,19.85
2017-09-20T17:27:42.401Z,20.05
2017-09-20T17:30:09.395Z,20.80
2017-09-20T17:32:36.401Z,20.48
2017-09-20T17:35:03.169Z,22.80
2017-09-20T17:37:30.212Z,23.00
2017-09-20T17:39:57.194Z,19.48
2017-09-20T17:42:24.331Z,20.45
2017-09-20T17:44:51.330Z,23.02
2017-09-20T17:47:18.424Z,21.40
2017-09-20T17:49:45.543Z,22.25
2017-09-20T17:52:12.694Z,22.73
2017-09-20T17:54:39.772Z,21.92
2017-09-20T17:57:06.923Z,23.60
2017-09-20T17:59:34.417Z,22.65
2017-09-20T18:02:01.553Z,22.45
2017-09-20T18:04:28.703Z,23.23
2017-09-20T18:06:55.807Z,22.20
2017-09-20T18:09:22.960Z,23.62
2017-09-20T18:11:50.111Z,21.48
2017-09-20T18:14:17.118Z,21.25
2017-09-20T18:16:44.182Z,24.27
2017-09-20T18:19:11.203Z,24.83
2017-09-20T18:21:38.220Z,26.23
2017-09-20T18:24:05.414Z,24.00
2017-09-20T18:26:32.424Z,24.10
2017-09-20T18:28:59.579Z,26.27
2017-09-20T18:31:26.560Z,25.50
2017-09-20T18:33:53.575Z,33.00
2017-09-20T18:36:20.621Z,29.08
2017-09-20T18:38:47.768Z,28.00
2017-09-20T18:41:14.757Z,26.42
2017-09-20T18:43:41.813Z,25.17
2017-09-20T18:46:08.932Z,28.35
2017-09-20T18:48:36.005Z,30.48
2017-09-20T18:51:03.118Z,26.02
2017-09-20T18:53:30.260Z,30.25
2017-09-20T18:55:57.382Z,24.67
2017-09-20T18:58:24.536Z,25.35
2017-09-20T19:00:51.621Z,25.58
2017-09-20T19:03:19.566Z,21.75
2017-09-20T19:05:46.655Z,26.15
2017-09-20T19:08:13.656Z,26.58
2017-09-20T19:10:40.804Z,23.25
2017-09-20T19:13:07.797Z,23.83
2017-09-20T19:15:34.959Z,26.12
2017-09-20T19:18:01.955Z,27.23
2017-09-20T19:20:29.128Z,24.40
2017-09-20T19:22:56.213Z,28.73
2017-09-20T19:25:23.780Z,27.95
2017-09-20T19:27:50.769Z,25.58
2017-09-20T19:30:17.869Z,28.90
2017-09-20T19:32:45.334Z,27.30
2017-09-20T19:35:12.429Z,29.35
2017-09-20T19:37:39.886Z,27.08
2017-09-20T19:40:07.386Z,28.80
2017-09-20T19:42:34.157Z,31.25
2017-09-20T19:45:00.948Z,30.50
2017-09-20T19:47:28.599Z,30.65
2017-09-20T19:49:55.712Z,30.45
2017-09-20T19:52:22.861Z,29.77
2017-09-20T19:54:49.881Z,30.08
2017-09-20T19:57:16.919Z,34.00
2017-09-20T19:59:44.004Z,29.15
2017-09-20T20:02:10.998Z,32.40
2017-09-20T20:04:37.996Z,29.73
2017-09-20T20:07:04.996Z,29.12
2017-09-20T20:09:32.112Z,29.42
2017-09-20T20:11:59.108Z,27.52
2017-09-20T20:14:26.121Z,28.08
2017-09-20T20:16:53.116Z,30.12
2017-09-20T20:19:20.184Z,30.77
2017-09-20T20:21:47.176Z,30.05
2017-09-20T20:24:14.287Z,28.67
2017-09-20T20:26:41.399Z,31.35
2017-09-20T20:29:08.390Z,30.95
2017-09-20T20:31:35.444Z,32.30
2017-09-20T20:34:02.910Z,30.33
2017-09-20T20:36:30.404Z,32.95
2017-09-20T20:38:57.873Z,28.60
2017-09-20T20:41:25.365Z,30.80
2017-09-20T20:43:52.457Z,29.70
2017-09-20T20:46:19.245Z,32.40
2017-09-20T20:48:46.395Z,32.50
2017-09-20T20:51:13.627Z,30.88
2017-09-20T20:53:40.751Z,33.60
2017-09-20T20:56:08.324Z,32.08
2017-09-20T20:58:35.355Z,36.15
2017-09-20T21:01:03.053Z,34.53
2017-09-20T21:03:36.267Z,33.78
2017-09-20T21:06:10.447Z,38.17
2017-09-20T21:08:37.704Z,34.60
2017-09-20T21:16:13.088Z,34.33
2017-09-20T21:21:12.756Z,34.35
2017-09-20T21:23:42.621Z,36.35
2017-09-20T21:28:40.930Z,36.80
2017-09-20T21:33:45.432Z,38.05
2017-09-20T21:41:53.508Z,35.35
2017-09-20T21:46:59.189Z,37.47
2017-09-20T21:49:28.802Z,37.03
2017-09-20T22:11:31.300Z,39.17
2017-09-20T22:16:40.166Z,40.28
2017-09-20T22:19:13.991Z,33.72
2017-09-20T22:21:47.020Z,37.60
2017-09-20T22:24:22.505Z,37.58
2017-09-20T22:29:31.676Z,34.03
2017-09-20T22:42:50.711Z,34.15
2017-09-20T22:48:10.535Z,32.05
2017-09-20T22:50:40.321Z,32.58
2017-09-20T22:53:09.655Z,29.80
2017-09-20T23:00:52.232Z,33.67
2017-09-20T23:03:20.560Z,29.48
2017-09-20T23:08:28.642Z,34.05
2017-09-20T23:10:56.366Z,29.42
2017-09-20T23:13:24.839Z,27.37
2017-09-20T23:15:52.640Z,30.10
2017-09-20T23:18:19.801Z,27.85
2017-09-20T23:20:47.473Z,30.23
2017-09-20T23:23:15.578Z,30.27
2017-09-20T23:25:44.173Z,31.62
2017-09-20T23:28:11.279Z,27.73
2017-09-20T23:30:40.024Z,30.92
2017-09-20T23:33:07.261Z,28.15
2017-09-20T23:35:35.248Z,29.85
2017-09-20T23:38:02.425Z,28.30
2017-09-20T23:40:29.944Z,29.02
2017-09-20T23:42:57.052Z,28.73
2017-09-20T23:45:24.268Z,33.88
2017-09-20T23:47:51.831Z,31.58
2017-09-20T23:52:50.615Z,26.05
2017-09-20T23:55:17.819Z,29.02
2017-09-20T23:57:45.377Z,28.65
